Smith Reynolds Airport
KINT : now visible

Airfield :











YOU CAN JOIN US ON...

 
LOGIN :

Register | Disclaimer

   EN    FR    IT 

 









Legend :    VFR   Marginal VFR   IFR   Intensive IFR   Very Intensive IFR
Visi :
Ceiling :
>= 8 km
>= 3000ft
5 to 8 km
1000 to 3000 ft
1500m to 5 km
500 to 1000 ft
800 to 1500m
200 to 500 ft
< 800m
< 200 ft
Symbols :   Thunderstorms  Fog  Heavy snow  Heavy precipitations  Wind > 20 kt






- Airport Elevation : 969 ft
- IATA code : INT


KINT - Smith Reynolds

CURRENT METAR :
  • 271454Z 17006KT 10SM FEW100 22/18 A2985 RMK AO2 SLP099 T02170183 58006

EXPIRED METARs :
  • 271427Z 23008KT 10SM SCT007 21/18 A2989 RMK AO2 T02110183
  • 271416Z 25004KT 10SM BKN007 21/18 A2986 RMK AO2 CIG 004V011 PRESFR T02110183
  • 271354Z 27010G18KT 8SM OVC004 21/19 A2989 RMK AO2 SLP112 T02060189
  • 271330Z 26007KT 7SM OVC004 22/19 A2989 RMK AO2 T02170194
  • 271254Z 20004KT 8SM BKN006 BKN075 21/19 A2987 RMK AO2 SLP107 T02110194
  • 271154Z 17005KT 9SM SCT005 21/19 A2985 RMK AO2 LTG DSNT N AND NW SLP096 60002 70037 T02060189 10206 20183 50006
  • 271139Z 19004KT 8SM BKN005 20/19 A2986 RMK AO2 T02000189
  • 271054Z 16003KT 10SM SCT006 BKN085 19/18 A2986 RMK AO2 LTG DSNT NE SLP100 T01940183
  • 271007Z AUTO 17004KT 10SM FEW008 19/18 A2985 RMK AO2 T01940178
  • 270954Z AUTO 16003KT 10SM FEW036 19/17 A2984 RMK AO2 SLP091 T01890172

TAF KINT
Valid from the 27 at 14:00 until the 28 at 12:00 UTC


271402Z 2714/2812 16004KT P6SM SCT006 BKN035
TEMPO 2714/2716 27012G18KT BKN004
FM271600 23012G24KT P6SM SCT035 BKN100
KZTL FIR / North America



MET'MAP, your aeronautical weather chart ! - Copyright ORBIFLY December 2007 - Disclaimer

ORBIFLY MET'MAP TEAM :

Programming & Development : Alexandra Zaïnal
Original concept : Baudouin d'Aumeries
Technical & hardware support : Manuel Goepfert
Assistance : Marc-Olivier Méhu




SOURCES & CREDITS :

   NOAA       Earth
Advisory